sensor_id;sensor_type;location;lat;lon;timestamp;P1;durP1;ratioP1;P2;durP2;ratioP2
8737;SDS011;4405;49.272;8.590;2024-01-10T00:00:11;11.70;;;7.67;;
8737;SDS011;4405;49.272;8.590;2024-01-10T00:02:37;14.80;;;8.00;;
8737;SDS011;4405;49.272;8.590;2024-01-10T00:05:05;11.30;;;6.97;;
8737;SDS011;4405;49.272;8.590;2024-01-10T00:07:32;13.10;;;7.83;;
8737;SDS011;4405;49.272;8.590;2024-01-10T00:09:58;11.27;;;7.43;;
8737;SDS011;4405;49.272;8.590;2024-01-10T00:12:26;10.57;;;7.37;;
8737;SDS011;4405;49.272;8.590;2024-01-10T00:14:58;13.60;;;7.63;;
8737;SDS011;4405;49.272;8.590;2024-01-10T00:17:24;13.27;;;8.10;;
8737;SDS011;4405;49.272;8.590;2024-01-10T00:19:50;11.47;;;7.67;;
8737;SDS011;4405;49.272;8.590;2024-01-10T00:22:18;11.70;;;7.30;;
8737;SDS011;4405;49.272;8.590;2024-01-10T00:24:44;12.10;;;7.93;;
8737;SDS011;4405;49.272;8.590;2024-01-10T00:27:10;13.37;;;7.90;;
8737;SDS011;4405;49.272;8.590;2024-01-10T00:29:37;11.60;;;7.33;;
8737;SDS011;4405;49.272;8.590;2024-01-10T00:32:03;14.13;;;8.13;;
8737;SDS011;4405;49.272;8.590;2024-01-10T00:34:31;13.67;;;8.10;;
8737;SDS011;4405;49.272;8.590;2024-01-10T00:36:58;14.07;;;7.80;;
8737;SDS011;4405;49.272;8.590;2024-01-10T00:39:25;12.30;;;7.77;;
8737;SDS011;4405;49.272;8.590;2024-01-10T00:41:51;15.13;;;7.33;;
8737;SDS011;4405;49.272;8.590;2024-01-10T00:44:18;10.77;;;7.03;;
8737;SDS011;4405;49.272;8.590;2024-01-10T00:46:44;12.10;;;7.03;;
8737;SDS011;4405;49.272;8.590;2024-01-10T00:49:10;13.33;;;7.20;;
8737;SDS011;4405;49.272;8.590;2024-01-10T00:51:36;14.17;;;7.83;;
8737;SDS011;4405;49.272;8.590;2024-01-10T00:54:02;13.37;;;8.10;;
8737;SDS011;4405;49.272;8.590;2024-01-10T00:56:30;14.00;;;8.23;;
8737;SDS011;4405;49.272;8.590;2024-01-10T00:58:56;13.70;;;7.77;;
8737;SDS011;4405;49.272;8.590;2024-01-10T01:01:23;12.33;;;7.67;;
8737;SDS011;4405;49.272;8.590;2024-01-10T01:03:49;15.70;;;8.00;;
8737;SDS011;4405;49.272;8.590;2024-01-10T01:06:15;14.33;;;8.00;;
8737;SDS011;4405;49.272;8.590;2024-01-10T01:08:42;12.23;;;8.27;;
8737;SDS011;4405;49.272;8.590;2024-01-10T01:11:08;13.03;;;7.57;;
8737;SDS011;4405;49.272;8.590;2024-01-10T01:13:36;13.87;;;8.03;;
8737;SDS011;4405;49.272;8.590;2024-01-10T01:16:02;15.53;;;7.90;;
8737;SDS011;4405;49.272;8.590;2024-01-10T01:18:28;12.40;;;7.47;;
8737;SDS011;4405;49.272;8.590;2024-01-10T01:20:55;11.20;;;8.03;;
8737;SDS011;4405;49.272;8.590;2024-01-10T01:23:21;14.13;;;7.80;;
8737;SDS011;4405;49.272;8.590;2024-01-10T01:25:47;12.63;;;7.67;;
8737;SDS011;4405;49.272;8.590;2024-01-10T01:28:13;14.00;;;7.83;;
8737;SDS011;4405;49.272;8.590;2024-01-10T01:30:41;12.97;;;7.30;;
8737;SDS011;4405;49.272;8.590;2024-01-10T01:33:07;12.70;;;7.97;;
8737;SDS011;4405;49.272;8.590;2024-01-10T01:35:33;15.77;;;7.90;;
8737;SDS011;4405;49.272;8.590;2024-01-10T01:38:00;12.03;;;8.00;;
8737;SDS011;4405;49.272;8.590;2024-01-10T01:40:26;13.30;;;8.03;;
8737;SDS011;4405;49.272;8.590;2024-01-10T01:42:52;11.80;;;7.43;;
8737;SDS011;4405;49.272;8.590;2024-01-10T01:45:18;13.57;;;8.20;;
8737;SDS011;4405;49.272;8.590;2024-01-10T01:47:46;13.33;;;7.50;;
8737;SDS011;4405;49.272;8.590;2024-01-10T01:50:12;12.13;;;7.50;;
8737;SDS011;4405;49.272;8.590;2024-01-10T01:52:38;14.73;;;7.83;;
8737;SDS011;4405;49.272;8.590;2024-01-10T01:55:05;12.27;;;7.77;;
8737;SDS011;4405;49.272;8.590;2024-01-10T01:57:33;15.80;;;7.90;;
8737;SDS011;4405;49.272;8.590;2024-01-10T01:59:59;13.80;;;8.90;;
8737;SDS011;4405;49.272;8.590;2024-01-10T02:02:25;14.00;;;8.07;;
8737;SDS011;4405;49.272;8.590;2024-01-10T02:04:54;14.73;;;7.73;;
8737;SDS011;4405;49.272;8.590;2024-01-10T02:07:20;11.40;;;7.47;;
8737;SDS011;4405;49.272;8.590;2024-01-10T02:09:47;15.03;;;8.20;;
8737;SDS011;4405;49.272;8.590;2024-01-10T02:12:13;13.33;;;7.87;;
8737;SDS011;4405;49.272;8.590;2024-01-10T02:14:39;14.00;;;7.93;;
8737;SDS011;4405;49.272;8.590;2024-01-10T02:17:05;11.70;;;7.23;;
8737;SDS011;4405;49.272;8.590;2024-01-10T02:19:33;15.63;;;8.73;;
8737;SDS011;4405;49.272;8.590;2024-01-10T02:22:01;12.47;;;7.90;;
8737;SDS011;4405;49.272;8.590;2024-01-10T02:24:27;14.33;;;8.63;;
8737;SDS011;4405;49.272;8.590;2024-01-10T02:26:55;12.97;;;7.87;;
8737;SDS011;4405;49.272;8.590;2024-01-10T02:29:21;12.20;;;8.13;;
8737;SDS011;4405;49.272;8.590;2024-01-10T02:31:49;16.03;;;8.63;;
8737;SDS011;4405;49.272;8.590;2024-01-10T02:34:15;14.93;;;8.30;;
8737;SDS011;4405;49.272;8.590;2024-01-10T02:36:41;10.90;;;7.70;;
8737;SDS011;4405;49.272;8.590;2024-01-10T02:39:07;13.57;;;8.30;;
8737;SDS011;4405;49.272;8.590;2024-01-10T02:41:33;12.13;;;7.83;;
8737;SDS011;4405;49.272;8.590;2024-01-10T02:44:01;14.53;;;8.80;;
8737;SDS011;4405;49.272;8.590;2024-01-10T02:46:29;13.67;;;8.33;;
8737;SDS011;4405;49.272;8.590;2024-01-10T02:48:56;13.47;;;8.27;;
8737;SDS011;4405;49.272;8.590;2024-01-10T02:51:23;14.30;;;7.97;;
8737;SDS011;4405;49.272;8.590;2024-01-10T02:53:50;14.80;;;8.10;;
8737;SDS011;4405;49.272;8.590;2024-01-10T02:56:16;14.53;;;8.03;;
8737;SDS011;4405;49.272;8.590;2024-01-10T02:58:42;14.60;;;8.17;;
8737;SDS011;4405;49.272;8.590;2024-01-10T03:01:10;13.30;;;8.10;;
8737;SDS011;4405;49.272;8.590;2024-01-10T03:03:36;13.63;;;8.63;;
8737;SDS011;4405;49.272;8.590;2024-01-10T03:06:02;15.77;;;8.70;;
8737;SDS011;4405;49.272;8.590;2024-01-10T03:08:28;12.63;;;7.73;;
8737;SDS011;4405;49.272;8.590;2024-01-10T03:10:54;14.80;;;8.07;;
8737;SDS011;4405;49.272;8.590;2024-01-10T03:13:21;14.70;;;8.23;;
8737;SDS011;4405;49.272;8.590;2024-01-10T03:15:47;14.60;;;7.63;;
8737;SDS011;4405;49.272;8.590;2024-01-10T03:18:15;15.60;;;8.43;;
8737;SDS011;4405;49.272;8.590;2024-01-10T03:20:41;13.93;;;8.80;;
8737;SDS011;4405;49.272;8.590;2024-01-10T03:23:07;13.53;;;7.53;;
8737;SDS011;4405;49.272;8.590;2024-01-10T03:25:34;15.47;;;9.03;;
8737;SDS011;4405;49.272;8.590;2024-01-10T03:28:00;14.70;;;8.50;;
8737;SDS011;4405;49.272;8.590;2024-01-10T03:30:26;15.50;;;8.20;;
8737;SDS011;4405;49.272;8.590;2024-01-10T03:32:52;16.03;;;8.60;;
8737;SDS011;4405;49.272;8.590;2024-01-10T03:35:20;13.73;;;8.60;;
8737;SDS011;4405;49.272;8.590;2024-01-10T03:37:46;13.77;;;8.50;;
8737;SDS011;4405;49.272;8.590;2024-01-10T03:40:12;12.80;;;7.97;;
8737;SDS011;4405;49.272;8.590;2024-01-10T03:42:39;14.13;;;8.40;;
8737;SDS011;4405;49.272;8.590;2024-01-10T03:45:05;13.43;;;7.90;;
8737;SDS011;4405;49.272;8.590;2024-01-10T03:47:31;13.17;;;8.23;;
8737;SDS011;4405;49.272;8.590;2024-01-10T03:49:58;15.20;;;9.07;;
8737;SDS011;4405;49.272;8.590;2024-01-10T03:52:25;13.70;;;8.40;;
8737;SDS011;4405;49.272;8.590;2024-01-10T03:54:51;15.57;;;8.83;;
8737;SDS011;4405;49.272;8.590;2024-01-10T03:57:17;14.63;;;8.47;;
8737;SDS011;4405;49.272;8.590;2024-01-10T03:59:44;16.37;;;9.33;;
8737;SDS011;4405;49.272;8.590;2024-01-10T04:02:10;17.13;;;9.27;;
8737;SDS011;4405;49.272;8.590;2024-01-10T04:04:36;14.00;;;7.97;;
8737;SDS011;4405;49.272;8.590;2024-01-10T04:07:03;15.53;;;9.30;;
8737;SDS011;4405;49.272;8.590;2024-01-10T04:09:30;16.10;;;9.00;;
8737;SDS011;4405;49.272;8.590;2024-01-10T04:11:56;15.50;;;8.97;;
8737;SDS011;4405;49.272;8.590;2024-01-10T04:14:23;14.47;;;8.27;;
8737;SDS011;4405;49.272;8.590;2024-01-10T04:16:49;15.47;;;8.90;;
8737;SDS011;4405;49.272;8.590;2024-01-10T04:19:15;16.30;;;9.23;;
8737;SDS011;4405;49.272;8.590;2024-01-10T04:21:41;16.30;;;9.03;;
8737;SDS011;4405;49.272;8.590;2024-01-10T04:24:08;16.77;;;9.37;;
8737;SDS011;4405;49.272;8.590;2024-01-10T04:26:36;15.63;;;9.07;;
8737;SDS011;4405;49.272;8.590;2024-01-10T04:29:02;15.00;;;9.43;;
8737;SDS011;4405;49.272;8.590;2024-01-10T04:31:28;15.57;;;8.93;;
8737;SDS011;4405;49.272;8.590;2024-01-10T04:33:54;16.17;;;9.13;;
8737;SDS011;4405;49.272;8.590;2024-01-10T04:36:21;16.47;;;8.33;;
8737;SDS011;4405;49.272;8.590;2024-01-10T04:38:47;15.50;;;8.23;;
8737;SDS011;4405;49.272;8.590;2024-01-10T04:41:13;16.43;;;9.37;;
8737;SDS011;4405;49.272;8.590;2024-01-10T04:43:41;16.70;;;9.57;;
8737;SDS011;4405;49.272;8.590;2024-01-10T04:46:07;16.90;;;8.80;;
8737;SDS011;4405;49.272;8.590;2024-01-10T04:48:35;14.90;;;8.70;;
8737;SDS011;4405;49.272;8.590;2024-01-10T04:51:01;15.07;;;8.77;;
8737;SDS011;4405;49.272;8.590;2024-01-10T04:53:27;15.93;;;9.20;;
8737;SDS011;4405;49.272;8.590;2024-01-10T04:55:54;17.20;;;8.77;;
8737;SDS011;4405;49.272;8.590;2024-01-10T04:58:20;17.67;;;9.57;;
8737;SDS011;4405;49.272;8.590;2024-01-10T05:00:47;18.23;;;9.90;;
8737;SDS011;4405;49.272;8.590;2024-01-10T05:03:14;17.27;;;9.17;;
8737;SDS011;4405;49.272;8.590;2024-01-10T05:05:40;18.67;;;10.07;;
8737;SDS011;4405;49.272;8.590;2024-01-10T05:08:07;15.10;;;9.40;;
8737;SDS011;4405;49.272;8.590;2024-01-10T05:10:33;15.90;;;9.20;;
8737;SDS011;4405;49.272;8.590;2024-01-10T05:12:59;19.77;;;10.97;;
8737;SDS011;4405;49.272;8.590;2024-01-10T05:15:25;17.47;;;9.77;;
8737;SDS011;4405;49.272;8.590;2024-01-10T05:17:53;17.37;;;10.63;;
8737;SDS011;4405;49.272;8.590;2024-01-10T05:20:19;22.70;;;10.90;;
8737;SDS011;4405;49.272;8.590;2024-01-10T05:22:45;19.07;;;10.63;;
8737;SDS011;4405;49.272;8.590;2024-01-10T05:25:11;17.70;;;10.30;;
8737;SDS011;4405;49.272;8.590;2024-01-10T05:27:37;16.33;;;9.73;;
8737;SDS011;4405;49.272;8.590;2024-01-10T05:30:04;18.33;;;9.73;;
8737;SDS011;4405;49.272;8.590;2024-01-10T05:32:30;17.23;;;10.40;;
8737;SDS011;4405;49.272;8.590;2024-01-10T05:34:58;18.30;;;9.73;;
8737;SDS011;4405;49.272;8.590;2024-01-10T05:37:24;15.20;;;9.10;;
8737;SDS011;4405;49.272;8.590;2024-01-10T05:39:50;16.50;;;9.80;;
8737;SDS011;4405;49.272;8.590;2024-01-10T05:42:16;15.93;;;9.33;;
8737;SDS011;4405;49.272;8.590;2024-01-10T05:44:42;17.23;;;9.60;;
8737;SDS011;4405;49.272;8.590;2024-01-10T05:47:08;16.17;;;9.43;;
8737;SDS011;4405;49.272;8.590;2024-01-10T05:49:34;15.13;;;8.80;;
8737;SDS011;4405;49.272;8.590;2024-01-10T05:52:02;17.43;;;9.67;;
8737;SDS011;4405;49.272;8.590;2024-01-10T05:54:28;15.00;;;9.40;;
8737;SDS011;4405;49.272;8.590;2024-01-10T05:56:55;18.33;;;10.33;;
8737;SDS011;4405;49.272;8.590;2024-01-10T05:59:21;19.97;;;9.77;;
8737;SDS011;4405;49.272;8.590;2024-01-10T06:01:47;16.17;;;8.97;;
8737;SDS011;4405;49.272;8.590;2024-01-10T06:04:13;17.30;;;9.77;;
8737;SDS011;4405;49.272;8.590;2024-01-10T06:06:39;16.63;;;10.17;;
8737;SDS011;4405;49.272;8.590;2024-01-10T06:09:07;15.70;;;9.53;;
8737;SDS011;4405;49.272;8.590;2024-01-10T06:11:39;18.80;;;10.40;;
8737;SDS011;4405;49.272;8.590;2024-01-10T06:14:06;18.20;;;9.40;;
8737;SDS011;4405;49.272;8.590;2024-01-10T06:16:32;17.77;;;9.50;;
8737;SDS011;4405;49.272;8.590;2024-01-10T06:18:58;18.47;;;10.40;;
8737;SDS011;4405;49.272;8.590;2024-01-10T06:21:24;17.03;;;9.63;;
8737;SDS011;4405;49.272;8.590;2024-01-10T06:23:51;17.13;;;9.67;;
8737;SDS011;4405;49.272;8.590;2024-01-10T06:26:18;18.07;;;9.73;;
8737;SDS011;4405;49.272;8.590;2024-01-10T06:28:45;16.97;;;8.77;;
8737;SDS011;4405;49.272;8.590;2024-01-10T06:31:11;17.37;;;9.83;;
8737;SDS011;4405;49.272;8.590;2024-01-10T06:33:37;17.07;;;9.87;;
8737;SDS011;4405;49.272;8.590;2024-01-10T06:36:04;16.97;;;9.90;;
8737;SDS011;4405;49.272;8.590;2024-01-10T06:38:30;16.67;;;9.53;;
8737;SDS011;4405;49.272;8.590;2024-01-10T06:40:56;17.60;;;9.97;;
8737;SDS011;4405;49.272;8.590;2024-01-10T06:43:24;14.17;;;9.23;;
8737;SDS011;4405;49.272;8.590;2024-01-10T06:45:50;20.67;;;10.03;;
8737;SDS011;4405;49.272;8.590;2024-01-10T06:48:16;18.53;;;10.13;;
8737;SDS011;4405;49.272;8.590;2024-01-10T06:50:44;17.47;;;9.73;;
8737;SDS011;4405;49.272;8.590;2024-01-10T06:53:10;17.30;;;9.37;;
8737;SDS011;4405;49.272;8.590;2024-01-10T06:55:36;17.90;;;9.87;;
8737;SDS011;4405;49.272;8.590;2024-01-10T06:58:03;21.07;;;10.00;;
8737;SDS011;4405;49.272;8.590;2024-01-10T07:00:30;15.80;;;9.27;;
8737;SDS011;4405;49.272;8.590;2024-01-10T07:02:57;18.87;;;10.43;;
8737;SDS011;4405;49.272;8.590;2024-01-10T07:05:23;16.17;;;9.73;;
8737;SDS011;4405;49.272;8.590;2024-01-10T07:07:49;14.40;;;8.90;;
8737;SDS011;4405;49.272;8.590;2024-01-10T07:10:16;16.03;;;10.03;;
8737;SDS011;4405;49.272;8.590;2024-01-10T07:12:42;20.33;;;10.07;;
8737;SDS011;4405;49.272;8.590;2024-01-10T07:15:08;16.30;;;9.47;;
8737;SDS011;4405;49.272;8.590;2024-01-10T07:17:36;18.43;;;10.17;;
8737;SDS011;4405;49.272;8.590;2024-01-10T07:20:02;18.87;;;9.80;;
8737;SDS011;4405;49.272;8.590;2024-01-10T07:22:30;17.03;;;10.33;;
8737;SDS011;4405;49.272;8.590;2024-01-10T07:24:56;15.73;;;9.57;;
8737;SDS011;4405;49.272;8.590;2024-01-10T07:27:23;12.43;;;8.70;;
8737;SDS011;4405;49.272;8.590;2024-01-10T07:29:49;14.27;;;9.03;;
8737;SDS011;4405;49.272;8.590;2024-01-10T07:32:15;15.47;;;9.73;;
8737;SDS011;4405;49.272;8.590;2024-01-10T07:34:43;16.43;;;9.50;;
8737;SDS011;4405;49.272;8.590;2024-01-10T07:37:09;16.47;;;9.37;;
8737;SDS011;4405;49.272;8.590;2024-01-10T07:39:36;17.80;;;9.47;;
8737;SDS011;4405;49.272;8.590;2024-01-10T07:42:03;15.77;;;9.00;;
8737;SDS011;4405;49.272;8.590;2024-01-10T07:44:29;18.57;;;9.67;;
8737;SDS011;4405;49.272;8.590;2024-01-10T07:46:55;15.40;;;9.10;;
8737;SDS011;4405;49.272;8.590;2024-01-10T07:49:22;16.47;;;9.33;;
8737;SDS011;4405;49.272;8.590;2024-01-10T07:51:50;16.47;;;10.23;;
8737;SDS011;4405;49.272;8.590;2024-01-10T07:54:16;20.23;;;10.53;;
8737;SDS011;4405;49.272;8.590;2024-01-10T07:56:42;17.47;;;9.47;;
8737;SDS011;4405;49.272;8.590;2024-01-10T07:59:09;16.43;;;10.27;;
8737;SDS011;4405;49.272;8.590;2024-01-10T08:01:36;18.00;;;9.87;;
8737;SDS011;4405;49.272;8.590;2024-01-10T08:04:03;17.33;;;9.13;;
8737;SDS011;4405;49.272;8.590;2024-01-10T08:06:29;17.33;;;9.17;;
8737;SDS011;4405;49.272;8.590;2024-01-10T08:08:57;18.67;;;10.30;;
8737;SDS011;4405;49.272;8.590;2024-01-10T08:11:23;14.83;;;9.50;;
8737;SDS011;4405;49.272;8.590;2024-01-10T08:13:49;18.70;;;10.10;;
8737;SDS011;4405;49.272;8.590;2024-01-10T08:16:16;16.93;;;9.63;;
8737;SDS011;4405;49.272;8.590;2024-01-10T08:18:43;18.53;;;11.20;;
8737;SDS011;4405;49.272;8.590;2024-01-10T08:21:10;18.17;;;8.77;;
8737;SDS011;4405;49.272;8.590;2024-01-10T08:23:36;16.17;;;9.43;;
8737;SDS011;4405;49.272;8.590;2024-01-10T08:26:04;15.30;;;9.37;;
8737;SDS011;4405;49.272;8.590;2024-01-10T08:28:33;18.20;;;10.50;;
8737;SDS011;4405;49.272;8.590;2024-01-10T08:30:59;17.63;;;10.20;;
8737;SDS011;4405;49.272;8.590;2024-01-10T08:33:26;17.90;;;9.63;;
8737;SDS011;4405;49.272;8.590;2024-01-10T08:35:52;17.13;;;9.87;;
8737;SDS011;4405;49.272;8.590;2024-01-10T08:38:19;15.53;;;9.13;;
8737;SDS011;4405;49.272;8.590;2024-01-10T08:40:45;20.43;;;11.27;;
8737;SDS011;4405;49.272;8.590;2024-01-10T08:43:13;16.60;;;10.10;;
8737;SDS011;4405;49.272;8.590;2024-01-10T08:45:39;16.33;;;9.73;;
8737;SDS011;4405;49.272;8.590;2024-01-10T08:48:06;14.87;;;9.23;;
8737;SDS011;4405;49.272;8.590;2024-01-10T08:50:32;15.27;;;9.63;;
8737;SDS011;4405;49.272;8.590;2024-01-10T08:52:59;17.93;;;9.93;;
8737;SDS011;4405;49.272;8.590;2024-01-10T08:55:28;17.17;;;10.00;;
8737;SDS011;4405;49.272;8.590;2024-01-10T08:57:55;16.77;;;10.00;;
8737;SDS011;4405;49.272;8.590;2024-01-10T09:00:22;19.60;;;10.53;;
8737;SDS011;4405;49.272;8.590;2024-01-10T09:02:49;17.80;;;10.17;;
8737;SDS011;4405;49.272;8.590;2024-01-10T09:05:15;21.10;;;10.10;;
8737;SDS011;4405;49.272;8.590;2024-01-10T09:07:42;17.73;;;10.13;;
8737;SDS011;4405;49.272;8.590;2024-01-10T09:10:08;15.80;;;10.17;;
8737;SDS011;4405;49.272;8.590;2024-01-10T09:12:35;16.67;;;9.80;;
8737;SDS011;4405;49.272;8.590;2024-01-10T09:15:02;16.93;;;10.73;;
8737;SDS011;4405;49.272;8.590;2024-01-10T09:17:30;19.13;;;10.60;;
8737;SDS011;4405;49.272;8.590;2024-01-10T09:19:56;19.63;;;11.27;;
8737;SDS011;4405;49.272;8.590;2024-01-10T09:22:22;17.27;;;10.23;;
8737;SDS011;4405;49.272;8.590;2024-01-10T09:24:48;19.70;;;10.10;;
8737;SDS011;4405;49.272;8.590;2024-01-10T09:27:15;19.10;;;11.20;;
8737;SDS011;4405;49.272;8.590;2024-01-10T09:29:41;19.37;;;11.20;;
8737;SDS011;4405;49.272;8.590;2024-01-10T09:32:07;22.67;;;10.67;;
8737;SDS011;4405;49.272;8.590;2024-01-10T09:34:35;15.43;;;9.37;;
8737;SDS011;4405;49.272;8.590;2024-01-10T09:37:01;19.80;;;10.73;;
8737;SDS011;4405;49.272;8.590;2024-01-10T09:39:27;18.33;;;9.87;;
8737;SDS011;4405;49.272;8.590;2024-01-10T09:41:54;17.97;;;10.70;;
8737;SDS011;4405;49.272;8.590;2024-01-10T09:44:19;17.20;;;10.30;;
8737;SDS011;4405;49.272;8.590;2024-01-10T09:46:47;15.60;;;10.00;;
8737;SDS011;4405;49.272;8.590;2024-01-10T09:49:15;17.23;;;10.23;;
8737;SDS011;4405;49.272;8.590;2024-01-10T09:51:43;19.47;;;10.67;;
8737;SDS011;4405;49.272;8.590;2024-01-10T09:54:12;18.00;;;10.40;;
8737;SDS011;4405;49.272;8.590;2024-01-10T09:56:39;17.07;;;10.60;;
8737;SDS011;4405;49.272;8.590;2024-01-10T09:59:07;16.33;;;10.30;;
8737;SDS011;4405;49.272;8.590;2024-01-10T10:01:35;16.40;;;11.33;;
8737;SDS011;4405;49.272;8.590;2024-01-10T10:04:01;18.70;;;11.73;;
8737;SDS011;4405;49.272;8.590;2024-01-10T10:06:28;19.30;;;11.37;;
8737;SDS011;4405;49.272;8.590;2024-01-10T10:08:55;19.13;;;11.70;;
8737;SDS011;4405;49.272;8.590;2024-01-10T10:11:22;17.17;;;10.60;;
8737;SDS011;4405;49.272;8.590;2024-01-10T10:13:48;19.20;;;11.07;;
8737;SDS011;4405;49.272;8.590;2024-01-10T10:16:14;17.57;;;11.17;;
8737;SDS011;4405;49.272;8.590;2024-01-10T10:18:48;21.17;;;11.80;;
8737;SDS011;4405;49.272;8.590;2024-01-10T10:21:15;18.30;;;11.50;;
8737;SDS011;4405;49.272;8.590;2024-01-10T10:23:42;16.37;;;11.27;;
8737;SDS011;4405;49.272;8.590;2024-01-10T10:26:11;17.13;;;11.43;;
8737;SDS011;4405;49.272;8.590;2024-01-10T10:28:39;18.27;;;11.90;;
8737;SDS011;4405;49.272;8.590;2024-01-10T10:31:06;16.97;;;11.50;;
8737;SDS011;4405;49.272;8.590;2024-01-10T10:33:32;14.73;;;11.07;;
8737;SDS011;4405;49.272;8.590;2024-01-10T10:36:01;16.63;;;11.70;;
8737;SDS011;4405;49.272;8.590;2024-01-10T10:38:28;19.20;;;11.97;;
8737;SDS011;4405;49.272;8.590;2024-01-10T10:40:54;17.40;;;11.17;;
8737;SDS011;4405;49.272;8.590;2024-01-10T10:43:22;14.80;;;11.37;;
8737;SDS011;4405;49.272;8.590;2024-01-10T10:45:49;16.73;;;11.47;;
8737;SDS011;4405;49.272;8.590;2024-01-10T10:48:16;18.97;;;12.30;;
8737;SDS011;4405;49.272;8.590;2024-01-10T10:50:42;18.80;;;12.13;;
8737;SDS011;4405;49.272;8.590;2024-01-10T10:53:13;17.07;;;12.37;;
8737;SDS011;4405;49.272;8.590;2024-01-10T10:55:40;18.13;;;11.87;;
8737;SDS011;4405;49.272;8.590;2024-01-10T10:58:07;18.70;;;12.10;;
8737;SDS011;4405;49.272;8.590;2024-01-10T11:00:35;17.20;;;11.40;;
8737;SDS011;4405;49.272;8.590;2024-01-10T11:03:01;15.03;;;11.40;;
8737;SDS011;4405;49.272;8.590;2024-01-10T11:05:28;19.43;;;12.80;;
8737;SDS011;4405;49.272;8.590;2024-01-10T11:07:54;19.13;;;12.37;;
8737;SDS011;4405;49.272;8.590;2024-01-10T11:10:23;20.37;;;12.53;;
8737;SDS011;4405;49.272;8.590;2024-01-10T11:12:55;21.20;;;12.20;;
8737;SDS011;4405;49.272;8.590;2024-01-10T11:15:29;17.00;;;11.43;;
8737;SDS011;4405;49.272;8.590;2024-01-10T11:18:04;18.60;;;12.70;;
8737;SDS011;4405;49.272;8.590;2024-01-10T11:20:39;16.20;;;12.03;;
8737;SDS011;4405;49.272;8.590;2024-01-10T11:23:14;17.63;;;11.23;;
8737;SDS011;4405;49.272;8.590;2024-01-10T11:25:44;16.33;;;12.10;;
8737;SDS011;4405;49.272;8.590;2024-01-10T11:28:11;18.17;;;11.90;;
8737;SDS011;4405;49.272;8.590;2024-01-10T11:30:48;18.70;;;13.40;;
8737;SDS011;4405;49.272;8.590;2024-01-10T11:33:21;16.03;;;11.57;;
8737;SDS011;4405;49.272;8.590;2024-01-10T11:36:06;18.00;;;12.43;;
8737;SDS011;4405;49.272;8.590;2024-01-10T11:38:34;19.10;;;12.93;;
8737;SDS011;4405;49.272;8.590;2024-01-10T11:41:04;17.03;;;11.97;;
8737;SDS011;4405;49.272;8.590;2024-01-10T11:43:30;17.37;;;12.33;;
8737;SDS011;4405;49.272;8.590;2024-01-10T11:45:56;16.63;;;13.20;;
8737;SDS011;4405;49.272;8.590;2024-01-10T11:48:27;17.73;;;12.37;;
8737;SDS011;4405;49.272;8.590;2024-01-10T11:50:53;18.00;;;12.20;;
8737;SDS011;4405;49.272;8.590;2024-01-10T11:56:05;16.73;;;12.30;;
8737;SDS011;4405;49.272;8.590;2024-01-10T11:58:39;16.33;;;12.40;;
8737;SDS011;4405;49.272;8.590;2024-01-10T12:01:17;16.23;;;12.03;;
8737;SDS011;4405;49.272;8.590;2024-01-10T12:03:46;18.87;;;12.17;;
8737;SDS011;4405;49.272;8.590;2024-01-10T12:06:13;19.57;;;12.63;;
8737;SDS011;4405;49.272;8.590;2024-01-10T12:08:40;17.37;;;12.27;;
8737;SDS011;4405;49.272;8.590;2024-01-10T12:11:06;16.17;;;12.17;;
8737;SDS011;4405;49.272;8.590;2024-01-10T12:13:33;18.00;;;13.33;;
8737;SDS011;4405;49.272;8.590;2024-01-10T12:16:00;16.93;;;11.83;;
8737;SDS011;4405;49.272;8.590;2024-01-10T12:18:26;17.40;;;13.03;;
8737;SDS011;4405;49.272;8.590;2024-01-10T12:20:55;19.03;;;12.57;;
8737;SDS011;4405;49.272;8.590;2024-01-10T12:23:21;17.70;;;12.43;;
8737;SDS011;4405;49.272;8.590;2024-01-10T12:25:48;16.23;;;11.83;;
8737;SDS011;4405;49.272;8.590;2024-01-10T12:28:15;16.47;;;12.83;;
8737;SDS011;4405;49.272;8.590;2024-01-10T12:30:41;16.63;;;12.63;;
8737;SDS011;4405;49.272;8.590;2024-01-10T12:33:08;15.60;;;11.93;;
8737;SDS011;4405;49.272;8.590;2024-01-10T12:35:34;15.07;;;11.93;;
8737;SDS011;4405;49.272;8.590;2024-01-10T12:38:04;16.13;;;12.00;;
8737;SDS011;4405;49.272;8.590;2024-01-10T12:40:31;18.10;;;12.87;;
8737;SDS011;4405;49.272;8.590;2024-01-10T12:43:01;14.87;;;12.10;;
8737;SDS011;4405;49.272;8.590;2024-01-10T12:45:27;15.80;;;12.13;;
8737;SDS011;4405;49.272;8.590;2024-01-10T12:47:53;18.03;;;13.60;;
8737;SDS011;4405;49.272;8.590;2024-01-10T12:50:20;15.70;;;12.17;;
8737;SDS011;4405;49.272;8.590;2024-01-10T12:52:46;16.03;;;12.63;;
8737;SDS011;4405;49.272;8.590;2024-01-10T12:55:15;19.67;;;13.47;;
8737;SDS011;4405;49.272;8.590;2024-01-10T12:57:42;16.23;;;13.73;;
8737;SDS011;4405;49.272;8.590;2024-01-10T13:00:09;15.23;;;12.27;;
8737;SDS011;4405;49.272;8.590;2024-01-10T13:02:36;16.63;;;12.60;;
8737;SDS011;4405;49.272;8.590;2024-01-10T13:05:03;18.87;;;14.43;;
8737;SDS011;4405;49.272;8.590;2024-01-10T13:07:29;16.30;;;13.03;;
8737;SDS011;4405;49.272;8.590;2024-01-10T13:09:56;17.20;;;13.47;;
8737;SDS011;4405;49.272;8.590;2024-01-10T13:12:24;18.17;;;14.23;;
8737;SDS011;4405;49.272;8.590;2024-01-10T13:14:50;16.80;;;13.23;;
8737;SDS011;4405;49.272;8.590;2024-01-10T13:17:18;16.20;;;12.30;;
8737;SDS011;4405;49.272;8.590;2024-01-10T13:19:44;14.87;;;12.60;;
8737;SDS011;4405;49.272;8.590;2024-01-10T13:22:13;15.47;;;12.87;;
8737;SDS011;4405;49.272;8.590;2024-01-10T13:24:42;15.87;;;12.67;;
8737;SDS011;4405;49.272;8.590;2024-01-10T13:27:08;17.47;;;13.60;;
8737;SDS011;4405;49.272;8.590;2024-01-10T13:29:36;18.50;;;14.17;;
8737;SDS011;4405;49.272;8.590;2024-01-10T13:32:03;18.90;;;14.80;;
8737;SDS011;4405;49.272;8.590;2024-01-10T13:34:29;14.30;;;12.20;;
8737;SDS011;4405;49.272;8.590;2024-01-10T13:36:56;17.40;;;14.33;;
8737;SDS011;4405;49.272;8.590;2024-01-10T13:39:22;18.27;;;14.83;;
8737;SDS011;4405;49.272;8.590;2024-01-10T13:41:48;19.53;;;14.70;;
8737;SDS011;4405;49.272;8.590;2024-01-10T13:44:14;17.57;;;14.50;;
8737;SDS011;4405;49.272;8.590;2024-01-10T13:46:42;18.87;;;14.00;;
8737;SDS011;4405;49.272;8.590;2024-01-10T13:49:08;16.97;;;12.60;;
8737;SDS011;4405;49.272;8.590;2024-01-10T13:51:36;17.40;;;13.30;;
8737;SDS011;4405;49.272;8.590;2024-01-10T13:54:02;18.53;;;14.17;;
8737;SDS011;4405;49.272;8.590;2024-01-10T13:56:28;20.80;;;14.27;;
8737;SDS011;4405;49.272;8.590;2024-01-10T13:58:55;17.87;;;13.67;;
8737;SDS011;4405;49.272;8.590;2024-01-10T14:01:22;16.03;;;12.30;;
8737;SDS011;4405;49.272;8.590;2024-01-10T14:03:50;19.80;;;13.83;;
8737;SDS011;4405;49.272;8.590;2024-01-10T14:06:16;20.63;;;14.53;;
8737;SDS011;4405;49.272;8.590;2024-01-10T14:08:42;18.87;;;13.87;;
8737;SDS011;4405;49.272;8.590;2024-01-10T14:11:10;20.67;;;14.57;;
8737;SDS011;4405;49.272;8.590;2024-01-10T14:13:37;17.60;;;12.90;;
8737;SDS011;4405;49.272;8.590;2024-01-10T14:16:03;17.83;;;13.53;;
8737;SDS011;4405;49.272;8.590;2024-01-10T14:18:29;19.37;;;14.03;;
8737;SDS011;4405;49.272;8.590;2024-01-10T14:20:57;18.03;;;12.63;;
8737;SDS011;4405;49.272;8.590;2024-01-10T14:23:23;19.90;;;14.37;;
8737;SDS011;4405;49.272;8.590;2024-01-10T14:25:50;21.47;;;13.93;;
8737;SDS011;4405;49.272;8.590;2024-01-10T14:28:18;20.03;;;13.13;;
8737;SDS011;4405;49.272;8.590;2024-01-10T14:30:45;20.63;;;13.57;;
8737;SDS011;4405;49.272;8.590;2024-01-10T14:33:11;19.43;;;13.83;;
8737;SDS011;4405;49.272;8.590;2024-01-10T14:35:38;21.50;;;12.67;;
8737;SDS011;4405;49.272;8.590;2024-01-10T14:38:06;17.50;;;12.40;;
8737;SDS011;4405;49.272;8.590;2024-01-10T14:40:32;17.93;;;12.90;;
8737;SDS011;4405;49.272;8.590;2024-01-10T14:42:58;16.33;;;12.03;;
8737;SDS011;4405;49.272;8.590;2024-01-10T14:45:25;18.20;;;13.10;;
8737;SDS011;4405;49.272;8.590;2024-01-10T14:47:51;23.00;;;15.13;;
8737;SDS011;4405;49.272;8.590;2024-01-10T14:50:17;19.80;;;14.60;;
8737;SDS011;4405;49.272;8.590;2024-01-10T14:52:44;19.77;;;13.47;;
8737;SDS011;4405;49.272;8.590;2024-01-10T14:55:11;19.70;;;13.40;;